createdAt,value
2023-04-18T00:01:38.642Z,101171.31
2023-04-18T00:04:41.566Z,101154.03
2023-04-18T00:07:44.645Z,101150.94
2023-04-18T00:10:49.407Z,101153.09
2023-04-18T00:13:53.169Z,101159.69
2023-04-18T00:16:55.978Z,101161.56
2023-04-18T00:19:58.810Z,101154.19
2023-04-18T00:23:02.216Z,101143.84
2023-04-18T00:26:04.403Z,101137.59
2023-04-18T00:29:09.490Z,101143.53
2023-04-18T00:32:11.928Z,101145.91
2023-04-18T00:35:14.425Z,101138.69
2023-04-18T00:38:16.560Z,101140.66
2023-04-18T00:41:19.634Z,101136.09
2023-04-18T00:44:21.933Z,101146.28
2023-04-18T00:47:27.082Z,101143.94
2023-04-18T00:50:29.686Z,101141.38
2023-04-18T00:53:32.138Z,101142.25
2023-04-18T00:56:35.039Z,101148.88
2023-04-18T00:59:38.168Z,101144.41
2023-04-18T01:02:41.106Z,101146.72
2023-04-18T01:05:46.723Z,101138.16
2023-04-18T01:08:48.801Z,101143.09
2023-04-18T01:11:54.118Z,101135.41
2023-04-18T01:14:56.482Z,101142.41
2023-04-18T01:18:02.667Z,101143.88
2023-04-18T01:21:06.313Z,101136.41
2023-04-18T01:24:16.213Z,101139.94
2023-04-18T01:27:18.591Z,101138.47
2023-04-18T01:30:20.872Z,101126.78
2023-04-18T01:33:23.225Z,101132.31
2023-04-18T01:36:27.399Z,101133.16
2023-04-18T01:39:29.445Z,101130.50
2023-04-18T01:42:31.620Z,101146.16
2023-04-18T01:45:34.537Z,101137.25
2023-04-18T01:48:37.583Z,101140.44
2023-04-18T01:51:42.345Z,101134.91
2023-04-18T01:54:48.989Z,101134.53
2023-04-18T01:57:53.933Z,101134.53
2023-04-18T02:00:59.376Z,101131.34
2023-04-18T02:04:01.936Z,101126.13
2023-04-18T02:07:07.805Z,101130.88
2023-04-18T02:10:11.457Z,101130.09
2023-04-18T02:13:16.127Z,101137.72
2023-04-18T02:16:18.773Z,101132.59
2023-04-18T02:19:21.335Z,101133.06
2023-04-18T02:22:25.657Z,101135.44
2023-04-18T02:25:29.465Z,101133.97
2023-04-18T02:28:31.659Z,101131.59
2023-04-18T02:31:33.869Z,101126.13
2023-04-18T02:34:45.193Z,101123.97
2023-04-18T02:37:48.032Z,101118.09
2023-04-18T02:40:50.470Z,101119.38
2023-04-18T02:43:52.565Z,101123.13
2023-04-18T02:46:55.599Z,101120.81
2023-04-18T02:49:57.801Z,101124.31
2023-04-18T02:53:02.787Z,101129.25
2023-04-18T02:56:20.568Z,101130.38
2023-04-18T02:59:41.147Z,101125.34
2023-04-18T03:02:58.433Z,101118.31
2023-04-18T03:06:14.847Z,101128.09
2023-04-18T03:09:17.572Z,101135.38
2023-04-18T03:12:25.997Z,101127.38
2023-04-18T03:15:31.551Z,101126.84
2023-04-18T03:18:34.346Z,101136.53
2023-04-18T03:21:37.686Z,101128.28
2023-04-18T03:24:40.223Z,101135.88
2023-04-18T03:27:43.941Z,101133.28
2023-04-18T03:30:48.631Z,101134.47
2023-04-18T03:33:51.952Z,101139.38
2023-04-18T03:36:55.452Z,101136.00
2023-04-18T03:39:59.132Z,101137.97
2023-04-18T03:43:03.565Z,101134.34
2023-04-18T03:46:11.843Z,101144.34
2023-04-18T03:49:14.443Z,101135.56
2023-04-18T03:52:17.372Z,101135.38
2023-04-18T03:55:20.842Z,101137.44
2023-04-18T03:58:23.893Z,101143.16
2023-04-18T04:01:27.598Z,101142.59
2023-04-18T04:04:30.860Z,101142.13
2023-04-18T04:07:34.169Z,101152.03
2023-04-18T04:10:36.603Z,101150.72
2023-04-18T04:13:39.739Z,101150.97
2023-04-18T04:16:42.704Z,101151.63
2023-04-18T04:19:47.393Z,101155.44
2023-04-18T04:22:54.093Z,101150.78
2023-04-18T04:25:58.933Z,101148.06
2023-04-18T04:29:19.694Z,101156.59
2023-04-18T04:32:24.179Z,101165.06
2023-04-18T04:35:27.414Z,101169.34
2023-04-18T04:38:31.759Z,101170.44
2023-04-18T04:41:37.704Z,101171.03
2023-04-18T04:44:43.040Z,101175.72
2023-04-18T04:47:45.631Z,101175.63
2023-04-18T04:50:53.884Z,101172.13
2023-04-18T04:53:56.517Z,101174.69
2023-04-18T04:56:58.746Z,101176.88
2023-04-18T05:00:02.032Z,101169.75
2023-04-18T05:03:06.370Z,101172.91
2023-04-18T05:06:08.797Z,101177.94
2023-04-18T05:09:11.010Z,101176.94
2023-04-18T05:12:13.240Z,101179.69
2023-04-18T05:15:16.823Z,101179.03
2023-04-18T05:22:08.602Z,101170.50
2023-04-18T05:25:10.831Z,101181.50
2023-04-18T05:28:12.885Z,101180.28
2023-04-18T05:31:14.963Z,101178.97
2023-04-18T05:34:17.223Z,101185.50
2023-04-18T05:37:19.409Z,101179.78
2023-04-18T05:40:21.592Z,101188.69
2023-04-18T05:43:23.842Z,101187.34
2023-04-18T05:46:30.578Z,101184.81
2023-04-18T05:49:33.248Z,101187.59
2023-04-18T05:52:37.741Z,101186.81
2023-04-18T05:55:41.205Z,101192.34
2023-04-18T05:58:45.144Z,101186.16
2023-04-18T06:01:47.367Z,101192.34
2023-04-18T06:04:50.019Z,101187.03
2023-04-18T06:07:52.489Z,101185.38
2023-04-18T06:10:56.717Z,101186.81
2023-04-18T06:13:59.277Z,101185.22
2023-04-18T06:17:01.460Z,101179.03
2023-04-18T06:20:06.378Z,101184.81
2023-04-18T06:23:08.545Z,101186.28
2023-04-18T06:26:11.632Z,101188.44
2023-04-18T06:29:18.830Z,101181.84
2023-04-18T06:32:21.763Z,101190.03
2023-04-18T06:35:25.964Z,101199.34
2023-04-18T06:38:28.857Z,101191.25
2023-04-18T06:41:31.765Z,101191.28
2023-04-18T06:44:33.857Z,101200.50
2023-04-18T06:47:36.572Z,101195.91
2023-04-18T06:50:38.818Z,101204.28
2023-04-18T06:53:41.407Z,101197.78
2023-04-18T06:56:43.428Z,101201.94
2023-04-18T06:59:45.616Z,101200.50
2023-04-18T07:02:49.197Z,101191.25
2023-04-18T07:05:54.173Z,101197.28
2023-04-18T07:09:01.054Z,101201.50
2023-04-18T07:12:03.445Z,101201.63
2023-04-18T07:15:06.283Z,101208.78
2023-04-18T07:18:08.656Z,101206.50
2023-04-18T07:21:12.216Z,101206.06
2023-04-18T07:24:14.752Z,101203.72
2023-04-18T07:27:19.983Z,101204.72
2023-04-18T07:30:22.314Z,101202.72
2023-04-18T07:33:25.516Z,101212.38
2023-04-18T07:36:28.646Z,101210.44
2023-04-18T07:39:36.052Z,101212.59
2023-04-18T07:42:38.506Z,101214.09
2023-04-18T07:45:45.118Z,101207.50
2023-04-18T07:48:54.113Z,101207.84
2023-04-18T07:51:56.726Z,101214.41
2023-04-18T07:54:58.801Z,101222.38
2023-04-18T07:58:01.092Z,101214.22
2023-04-18T08:01:03.995Z,101204.72
2023-04-18T08:04:09.054Z,101207.88
2023-04-18T08:07:11.815Z,101214.97
2023-04-18T08:10:14.098Z,101220.69
2023-04-18T08:13:18.049Z,101224.44
2023-04-18T08:16:20.344Z,101224.81
2023-04-18T08:19:23.775Z,101224.13
2023-04-18T08:22:28.772Z,101233.72
2023-04-18T08:25:31.845Z,101231.63
2023-04-18T08:28:36.706Z,101226.41
2023-04-18T08:31:40.355Z,101231.50
2023-04-18T08:34:42.698Z,101235.66
2023-04-18T08:37:44.965Z,101239.16
2023-04-18T08:40:47.915Z,101239.53
2023-04-18T08:43:50.399Z,101232.59
2023-04-18T08:46:53.104Z,101240.97
2023-04-18T08:49:56.028Z,101239.00
2023-04-18T08:53:02.005Z,101236.09
2023-04-18T08:56:05.687Z,101241.53
2023-04-18T08:59:08.228Z,101236.88
2023-04-18T09:02:10.429Z,101240.44
2023-04-18T09:05:15.187Z,101241.47
2023-04-18T09:08:24.698Z,101241.28
2023-04-18T09:11:29.640Z,101237.16
2023-04-18T09:14:32.974Z,101244.59
2023-04-18T09:17:44.993Z,101248.34
2023-04-18T09:20:52.006Z,101244.78
2023-04-18T09:24:22.479Z,101251.63
2023-04-18T09:27:25.195Z,101251.63
2023-04-18T09:30:37.969Z,101248.72
2023-04-18T09:33:44.993Z,101244.06
2023-04-18T09:36:47.147Z,101239.72
2023-04-18T09:39:50.920Z,101250.63
2023-04-18T09:42:57.176Z,101253.91
2023-04-18T09:46:01.764Z,101251.09
2023-04-18T09:49:04.154Z,101249.78
2023-04-18T09:52:07.929Z,101250.63
2023-04-18T09:58:38.912Z,101244.28
2023-04-18T10:02:12.291Z,101249.25
2023-04-18T10:05:15.760Z,101249.63
2023-04-18T10:08:23.478Z,101236.69
2023-04-18T10:11:26.194Z,101239.50
2023-04-18T10:14:33.356Z,101238.44
2023-04-18T10:17:56.088Z,101242.38
2023-04-18T10:21:05.140Z,101241.88
2023-04-18T10:24:09.876Z,101235.53
2023-04-18T10:27:12.209Z,101221.28
2023-04-18T10:30:19.311Z,101216.31
2023-04-18T10:33:32.411Z,101207.72
2023-04-18T10:36:36.377Z,101189.97
2023-04-18T10:39:58.928Z,101187.00
2023-04-18T10:43:04.317Z,101191.88
2023-04-18T10:46:27.919Z,101207.50
2023-04-18T10:49:35.890Z,101214.63
2023-04-18T10:52:40.399Z,101220.56
2023-04-18T10:55:51.261Z,101218.94
2023-04-18T10:58:54.082Z,101219.03
2023-04-18T11:02:04.218Z,101222.69
2023-04-18T11:05:08.315Z,101218.56
2023-04-18T11:08:24.204Z,101210.22
2023-04-18T11:11:28.274Z,101204.47
2023-04-18T11:14:43.935Z,101196.16
2023-04-18T11:18:05.249Z,101191.56
2023-04-18T11:21:10.074Z,101196.00
2023-04-18T11:24:13.524Z,101194.50
2023-04-18T11:27:16.233Z,101197.47
2023-04-18T11:30:18.838Z,101194.03
2023-04-18T11:33:52.021Z,101195.72
2023-04-18T11:36:54.275Z,101196.31
2023-04-18T11:40:00.471Z,101198.00
2023-04-18T11:43:07.495Z,101203.91
2023-04-18T11:46:09.795Z,101192.75
2023-04-18T11:49:28.590Z,101198.84
2023-04-18T11:52:34.692Z,101197.97
2023-04-18T11:55:38.260Z,101200.00
2023-04-18T11:58:41.689Z,101196.84
2023-04-18T12:01:44.505Z,101196.84
2023-04-18T12:05:00.707Z,101199.72
2023-04-18T12:08:19.762Z,101181.22
2023-04-18T12:11:22.062Z,101182.44
2023-04-18T12:14:27.366Z,101184.47
2023-04-18T12:17:44.039Z,101194.31
2023-04-18T12:24:34.053Z,101186.63
2023-04-18T12:27:54.702Z,101189.78
2023-04-18T12:32:07.507Z,101176.09
2023-04-18T12:35:19.704Z,101166.34
2023-04-18T12:38:51.554Z,101187.31
2023-04-18T12:42:02.332Z,101180.13
2023-04-18T12:45:07.836Z,101186.25
2023-04-18T12:48:16.136Z,101164.75
2023-04-18T12:51:18.464Z,101173.38
2023-04-18T12:54:20.852Z,101174.03
2023-04-18T12:57:23.151Z,101170.78
2023-04-18T13:00:32.748Z,101162.44
2023-04-18T13:03:56.344Z,101159.72
2023-04-18T13:11:18.710Z,101187.56
2023-04-18T13:14:21.663Z,101182.69
2023-04-18T13:17:26.725Z,101180.63
2023-04-18T13:20:37.844Z,101193.00
2023-04-18T13:24:10.335Z,101186.28
2023-04-18T13:27:41.414Z,101182.19
2023-04-18T13:31:12.347Z,101180.19
2023-04-18T13:34:15.109Z,101165.69
2023-04-18T13:37:17.424Z,101178.03
2023-04-18T13:40:33.725Z,101172.44
2023-04-18T13:43:36.218Z,101185.78
2023-04-18T13:46:38.667Z,101163.91
2023-04-18T13:49:49.421Z,101169.53
2023-04-18T13:52:52.222Z,101168.06
2023-04-18T14:05:26.508Z,101188.94
2023-04-18T14:13:52.944Z,101170.44
2023-04-18T14:16:55.387Z,101188.00
2023-04-18T14:19:57.966Z,101183.19
2023-04-18T14:23:26.146Z,101195.69
2023-04-18T14:26:38.219Z,101177.38
2023-04-18T14:29:40.481Z,101188.69
2023-04-18T14:33:00.732Z,101179.88
2023-04-18T14:36:32.114Z,101193.78
2023-04-18T14:39:34.606Z,101170.81
2023-04-18T14:46:43.625Z,101164.50
2023-04-18T14:59:29.302Z,101184.22
2023-04-18T15:03:23.731Z,101187.19
2023-04-18T15:11:33.847Z,101177.16
2023-04-18T15:14:36.013Z,101198.25
2023-04-18T15:17:38.117Z,101198.53
2023-04-18T15:20:40.436Z,101195.34
2023-04-18T15:23:42.497Z,101200.34
2023-04-18T15:32:15.557Z,101192.69
2023-04-18T15:48:07.113Z,101186.78
2023-04-18T15:51:21.331Z,101178.94
2023-04-18T15:54:23.656Z,101167.34
2023-04-18T15:57:32.250Z,101183.34
2023-04-18T16:17:07.003Z,101188.88
2023-04-18T16:20:11.851Z,101185.03
2023-04-18T16:31:49.319Z,101167.56
2023-04-18T16:35:27.655Z,101176.75
2023-04-18T16:38:31.239Z,101163.94
2023-04-18T16:41:35.816Z,101174.16
2023-04-18T16:44:41.075Z,101186.66
2023-04-18T16:53:08.312Z,101187.50
2023-04-18T16:56:10.495Z,101195.56
2023-04-18T16:59:12.673Z,101201.09
2023-04-18T17:02:14.994Z,101190.06
2023-04-18T17:05:18.766Z,101186.88
2023-04-18T17:08:21.421Z,101197.91
2023-04-18T17:11:23.667Z,101195.03
2023-04-18T17:14:25.797Z,101198.94
2023-04-18T17:17:27.855Z,101192.25
2023-04-18T17:20:30.266Z,101199.97
2023-04-18T17:23:33.071Z,101191.63
2023-04-18T17:26:39.412Z,101190.22
2023-04-18T17:29:42.291Z,101187.72
2023-04-18T17:32:46.126Z,101189.38
2023-04-18T17:35:48.433Z,101188.44
2023-04-18T17:38:51.169Z,101193.00
2023-04-18T17:41:53.239Z,101191.63
2023-04-18T17:44:56.604Z,101191.97
2023-04-18T17:47:59.682Z,101191.88
2023-04-18T17:51:02.295Z,101191.25
2023-04-18T17:54:11.065Z,101194.13
2023-04-18T17:57:13.259Z,101199.56
2023-04-18T18:00:15.910Z,101199.09
2023-04-18T18:03:19.378Z,101194.50
2023-04-18T18:10:28.488Z,101181.34
2023-04-18T18:14:12.084Z,101189.63
2023-04-18T18:56:44.366Z,101122.44
2023-04-18T18:59:55.822Z,101122.38
2023-04-18T19:02:58.641Z,101131.31
2023-04-18T19:06:03.970Z,101142.63
2023-04-18T19:09:06.345Z,101145.31
2023-04-18T19:12:09.009Z,101150.47
2023-04-18T19:15:13.731Z,101147.22
2023-04-18T19:18:15.876Z,101144.72
2023-04-18T19:21:25.109Z,101147.44
2023-04-18T19:24:27.288Z,101140.50
2023-04-18T19:27:29.448Z,101131.50
2023-04-18T19:30:32.319Z,101135.56
2023-04-18T19:33:34.614Z,101132.47
2023-04-18T19:36:37.416Z,101125.53
2023-04-18T19:39:39.674Z,101129.16
2023-04-18T19:42:44.559Z,101125.38
2023-04-18T19:45:46.711Z,101118.34
2023-04-18T19:48:49.060Z,101118.94
2023-04-18T19:51:52.620Z,101113.94
2023-04-18T19:54:55.321Z,101116.69
2023-04-18T19:58:07.509Z,101113.84
2023-04-18T20:01:18.366Z,101110.03
2023-04-18T20:04:22.449Z,101107.59
2023-04-18T20:07:26.221Z,101101.78
2023-04-18T20:10:28.473Z,101123.22
2023-04-18T20:13:30.817Z,101104.97
2023-04-18T20:16:35.376Z,101105.50
2023-04-18T20:19:37.976Z,101106.00
2023-04-18T20:22:40.687Z,101106.22
2023-04-18T20:25:43.626Z,101090.56
2023-04-18T20:28:45.836Z,101098.31
2023-04-18T20:31:47.865Z,101096.91
2023-04-18T20:34:50.015Z,101091.25
2023-04-18T20:37:52.310Z,101086.47
2023-04-18T20:40:54.787Z,101080.50
2023-04-18T20:43:58.923Z,101079.44
2023-04-18T20:47:01.428Z,101083.59
2023-04-18T20:50:04.187Z,101081.34
2023-04-18T20:53:06.959Z,101069.72
2023-04-18T20:56:11.794Z,101074.31
2023-04-18T20:59:13.921Z,101067.84
2023-04-18T21:02:17.070Z,101064.59
2023-04-18T21:05:19.166Z,101063.34
2023-04-18T21:08:21.322Z,101061.22
2023-04-18T21:11:23.857Z,101062.72
2023-04-18T21:14:26.057Z,101054.59
2023-04-18T21:17:28.186Z,101044.31
2023-04-18T21:20:30.416Z,101047.41
2023-04-18T21:23:32.966Z,101038.97
2023-04-18T21:26:35.973Z,101046.56
2023-04-18T21:29:38.148Z,101045.06
2023-04-18T21:32:40.322Z,101044.31
2023-04-18T21:35:42.833Z,101043.44
2023-04-18T21:38:44.918Z,101039.88
2023-04-18T21:41:47.052Z,101038.34
2023-04-18T21:44:49.188Z,101043.09
2023-04-18T21:47:51.382Z,101039.06
2023-04-18T21:50:56.393Z,101031.34
2023-04-18T21:53:59.812Z,101028.00
2023-04-18T21:57:02.725Z,101022.94
2023-04-18T22:00:07.835Z,101023.28
2023-04-18T22:03:13.287Z,101025.75
2023-04-18T22:06:16.487Z,101013.84
2023-04-18T22:09:19.489Z,101020.88
2023-04-18T22:12:21.824Z,101010.28
2023-04-18T22:15:24.786Z,101009.00
2023-04-18T22:18:30.442Z,101010.28
2023-04-18T22:21:32.746Z,101000.50
2023-04-18T22:24:36.203Z,100995.94
2023-04-18T22:27:39.136Z,100999.59
2023-04-18T22:30:41.853Z,100994.47
2023-04-18T22:33:44.319Z,100988.47
2023-04-18T22:36:46.542Z,100988.03
2023-04-18T22:39:48.698Z,100982.97
2023-04-18T22:42:52.075Z,100991.00
2023-04-18T22:45:54.416Z,100981.00
2023-04-18T22:48:57.176Z,100972.41
2023-04-18T22:51:59.870Z,100969.25
2023-04-18T22:55:07.248Z,100957.22
2023-04-18T22:58:10.710Z,100947.03
2023-04-18T23:01:12.851Z,100931.59
2023-04-18T23:04:15.119Z,100932.66
2023-04-18T23:07:17.501Z,100922.72
2023-04-18T23:10:19.577Z,100930.38
2023-04-18T23:13:21.724Z,100935.78
2023-04-18T23:16:23.930Z,100928.66
2023-04-18T23:19:26.119Z,100923.00
2023-04-18T23:22:28.608Z,100932.78
2023-04-18T23:25:34.142Z,100927.19
2023-04-18T23:28:36.550Z,100917.94
2023-04-18T23:31:38.817Z,100910.28
2023-04-18T23:34:41.641Z,100913.44
2023-04-18T23:37:43.964Z,100915.09
2023-04-18T23:40:46.001Z,100912.31
2023-04-18T23:43:48.130Z,100914.84
2023-04-18T23:46:50.680Z,100902.78
2023-04-18T23:49:52.775Z,100908.84
2023-04-18T23:52:54.827Z,100902.13
2023-04-18T23:55:56.932Z,100894.25
2023-04-18T23:58:59.388Z,100889.25
